Time;durP1;ratioP1;P1;durP2;ratioP2;P2;SDS_P1;SDS_P2;PMS_P1;PMS_P2;Temp;Humidity;BMP_temperature;BMP_pressure;BME280_temperature;BME280_humidity;BME280_pressure;Samples;Min_cycle;Max_cycle;Signal;HPM_P1;HPM_P2
2022/12/20 00:01:07;;;;;;;;;3.00;3.00;;;;;11.02;77.53;100676.28;4945654;28;44677;-89
2022/12/20 00:03:32;;;;;;;;;7.50;6.75;;;;;10.72;78.00;100611.66;4939796;28;45346;-89
2022/12/20 00:05:58;;;;;;;;;9.75;9.75;;;;;10.26;77.42;100539.41;4939842;28;45415;-89
2022/12/20 00:08:23;;;;;;;;;6.75;6.75;;;;;9.49;77.66;100404.47;4924830;28;46546;-89
2022/12/20 00:10:48;;;;;;;;;7.50;7.00;;;;;10.64;77.64;100615.34;4940306;28;45370;-89
2022/12/20 00:13:14;;;;;;;;;6.25;6.00;;;;;10.68;77.42;100605.56;4953923;28;45550;-89
2022/12/20 00:15:39;;;;;;;;;8.00;7.75;;;;;11.11;78.00;100677.88;4965884;28;45212;-89
2022/12/20 00:18:05;;;;;;;;;7.50;7.50;;;;;10.46;77.92;100569.00;4960046;28;47786;-89
2022/12/20 00:20:30;;;;;;;;;7.50;6.50;;;;;11.08;78.23;100678.78;4964422;28;45440;-88
2022/12/20 00:22:56;;;;;;;;;12.00;7.75;;;;;11.06;77.94;100675.31;4966077;28;44799;-89
2022/12/20 00:25:21;;;;;;;;;8.00;7.00;;;;;10.42;77.53;100567.31;4962394;28;44946;-89
2022/12/20 00:27:47;;;;;;;;;6.75;5.00;;;;;9.96;77.37;100478.38;4960255;28;46820;-89
2022/12/20 00:30:13;;;;;;;;;7.25;7.25;;;;;10.46;77.40;100571.66;4960422;28;44798;-88
2022/12/20 00:32:38;;;;;;;;;8.50;8.50;;;;;10.38;77.71;100567.41;4961075;28;44767;-88
2022/12/20 00:35:04;;;;;;;;;8.25;8.25;;;;;9.64;78.24;100453.44;4955548;28;45429;-88
2022/12/20 00:37:30;;;;;;;;;7.00;6.50;;;;;10.26;77.42;100555.25;4974983;28;45333;-89
2022/12/20 00:39:56;;;;;;;;;6.50;6.50;;;;;9.92;77.64;100492.53;4979850;28;45341;-89
2022/12/20 00:42:21;;;;;;;;;6.75;6.75;;;;;9.93;77.69;100492.50;4982368;28;45499;-88
2022/12/20 00:44:47;;;;;;;;;9.00;8.00;;;;;9.49;77.56;100432.59;4966653;28;45507;-89
2022/12/20 00:47:13;;;;;;;;;6.25;6.25;;;;;10.16;77.65;100525.53;4960879;28;47650;-89
2022/12/20 00:49:39;;;;;;;;;8.00;8.00;;;;;9.96;78.07;100502.13;4960892;28;45476;-88
2022/12/20 00:52:04;;;;;;;;;9.50;8.50;;;;;9.59;77.78;100442.09;4960728;28;45406;-89
2022/12/20 00:54:30;;;;;;;;;8.50;7.00;;;;;10.69;77.43;100609.97;4953785;28;45416;-89
2022/12/20 00:56:55;;;;;;;;;8.00;8.00;;;;;9.42;77.89;100418.66;4962449;28;46432;-89
2022/12/20 00:59:21;;;;;;;;;5.50;5.50;;;;;10.86;77.89;100664.28;4958504;28;45512;-89
2022/12/20 01:01:46;;;;;;;;;4.50;4.50;;;;;9.26;77.19;100375.81;4957891;28;45500;-88
2022/12/20 01:04:12;;;;;;;;;10.00;10.00;;;;;10.13;77.77;100538.78;4956364;28;45573;-88
2022/12/20 01:06:38;;;;;;;;;6.75;4.50;;;;;10.60;77.47;100610.16;4943461;28;45337;-89
2022/12/20 01:09:04;;;;;;;;;7.25;6.00;;;;;10.32;77.69;100563.97;4942910;28;45508;-89
2022/12/20 01:11:33;;;;;;;;;4.00;4.00;;;;;9.22;77.32;100375.03;4944511;28;45394;-89
2022/12/20 01:14:02;;;;;;;;;9.50;6.75;;;;;10.88;77.67;100644.81;4945351;28;45664;-89
2022/12/20 01:16:35;;;;;;;;;8.75;7.00;;;;;10.22;78.06;100521.88;4939244;28;46502;-89
2022/12/20 01:19:01;;;;;;;;;8.25;8.25;;;;;10.88;78.27;100650.13;4953182;28;46129;-88
2022/12/20 01:21:27;;;;;;;;;8.50;8.00;;;;;9.46;78.09;100411.53;4959583;28;45369;-89
2022/12/20 01:23:54;;;;;;;;;9.00;9.00;;;;;10.80;77.76;100637.06;4952858;28;45284;-89
2022/12/20 01:26:22;;;;;;;;;6.00;5.00;;;;;10.60;78.04;100591.66;4958035;28;45579;-88
2022/12/20 01:28:51;;;;;;;;;7.00;7.00;;;;;10.40;78.17;100563.84;4959221;28;45440;-88
2022/12/20 01:31:17;;;;;;;;;6.00;6.00;;;;;10.20;78.49;100532.47;4959843;28;45420;-87
2022/12/20 01:33:44;;;;;;;;;9.00;7.50;;;;;10.59;77.86;100600.47;4959622;28;45382;-88
2022/12/20 01:36:15;;;;;;;;;6.50;6.50;;;;;10.88;78.60;100643.97;4959600;28;46824;-89
2022/12/20 01:38:44;;;;;;;;;10.25;8.00;;;;;10.89;78.00;100643.06;4961060;28;45210;-88
2022/12/20 01:41:18;;;;;;;;;7.00;7.00;;;;;9.49;77.93;100419.41;4965803;28;45480;-88
2022/12/20 01:43:51;;;;;;;;;8.25;7.75;;;;;9.95;78.47;100492.47;4966261;28;45393;-88
2022/12/20 01:46:17;;;;;;;;;3.75;2.25;;;;;10.71;78.16;100617.88;4959166;28;47318;-88
2022/12/20 01:48:50;;;;;;;;;7.25;7.25;;;;;10.27;78.07;100531.47;4958225;28;45306;-88
2022/12/20 01:51:17;;;;;;;;;5.50;5.50;;;;;9.78;78.25;100459.31;4958801;28;45375;-88
2022/12/20 01:53:43;;;;;;;;;6.50;5.00;;;;;10.14;78.09;100519.38;4958542;28;45284;-88
2022/12/20 01:56:10;;;;;;;;;8.25;8.25;;;;;9.64;78.10;100424.41;4972325;28;46981;-88
2022/12/20 01:58:37;;;;;;;;;9.25;7.50;;;;;10.23;78.05;100527.16;4955186;28;45442;-88
2022/12/20 02:01:03;;;;;;;;;5.50;5.00;;;;;10.49;77.88;100571.59;4942706;28;45449;-88
2022/12/20 02:03:31;;;;;;;;;7.00;6.00;;;;;9.98;77.50;100487.13;4960436;28;45498;-89
2022/12/20 02:05:56;;;;;;;;;8.50;7.50;;;;;10.08;77.93;100475.50;4961106;28;47981;-88
2022/12/20 02:08:22;;;;;;;;;9.00;6.75;;;;;10.31;77.91;100549.00;4958862;28;45437;-88
2022/12/20 02:10:50;;;;;;;;;6.50;5.00;;;;;10.90;77.80;100642.16;4959062;28;45358;-88
2022/12/20 02:13:42;;;;;;;;;5.00;5.00;;;;;10.79;78.15;100642.38;4961763;28;45433;-89
2022/12/20 02:16:10;;;;;;;;;5.25;5.25;;;;;10.51;78.34;100594.44;4960525;28;47266;-88
2022/12/20 02:18:47;;;;;;;;;6.00;6.00;;;;;9.85;77.90;100459.22;4960884;28;45545;-88
2022/12/20 02:21:43;;;;;;;;;6.50;5.50;;;;;10.84;78.31;100638.75;4957391;28;45437;-88
2022/12/20 02:24:14;;;;;;;;;6.75;6.00;;;;;10.85;78.22;100644.88;4957038;28;45318;-88
2022/12/20 02:27:04;;;;;;;;;6.75;6.75;;;;;10.76;77.83;100629.22;4956297;28;46454;-88
2022/12/20 02:29:36;;;;;;;;;7.25;6.00;;;;;10.77;78.42;100647.69;4963675;28;45375;-88
2022/12/20 02:32:07;;;;;;;;;5.00;5.00;;;;;9.20;77.75;100365.38;4956290;28;45520;-89
2022/12/20 02:34:35;;;;;;;;;5.00;5.00;;;;;10.65;78.05;100605.63;4943750;28;45561;-89
2022/12/20 02:37:01;;;;;;;;;6.25;5.00;;;;;9.99;77.99;100499.44;4950834;28;46984;-88
2022/12/20 02:39:30;;;;;;;;;10.25;6.00;;;;;9.59;77.89;100426.25;4947707;28;45380;-88
2022/12/20 02:42:20;;;;;;;;;5.75;5.75;;;;;9.75;78.38;100467.31;4964927;28;45224;-89
2022/12/20 02:45:18;;;;;;;;;3.25;3.25;;;;;9.83;78.11;100480.34;4963874;28;45301;-88
2022/12/20 02:48:17;;;;;;;;;3.00;3.00;;;;;10.61;77.62;100617.16;4964903;28;47139;-91
2022/12/20 02:50:49;;;;;;;;;7.50;6.50;;;;;10.02;77.92;100530.19;4904191;29;45317;-91
2022/12/20 02:53:15;;;;;;;;;8.00;8.00;;;;;10.47;78.07;100591.88;4902203;29;45270;-92
2022/12/20 02:55:53;;;;;;;;;7.00;7.00;;;;;9.71;77.79;100460.31;4896631;29;45201;-91
2022/12/20 02:58:48;;;;;;;;;5.50;5.00;;;;;10.59;77.83;100601.34;4887482;29;47577;-90
2022/12/20 03:01:29;;;;;;;;;5.00;5.00;;;;;9.55;78.05;100435.13;4883448;29;45306;-91
2022/12/20 03:03:56;;;;;;;;;7.25;6.50;;;;;9.95;77.81;100488.03;4885552;29;45282;-92
2022/12/20 03:06:22;;;;;;;;;5.00;5.00;;;;;9.60;77.60;100438.56;4889719;29;45411;-92
2022/12/20 03:08:50;;;;;;;;;8.50;6.00;;;;;9.92;78.00;100509.22;4890481;29;46096;-91
2022/12/20 03:11:16;;;;;;;;;4.50;4.50;;;;;10.45;78.04;100580.47;4897558;29;45521;-92
2022/12/20 03:13:41;;;;;;;;;6.00;5.25;;;;;8.48;78.00;100262.06;4906680;29;45301;-90
2022/12/20 03:16:09;;;;;;;;;4.25;4.25;;;;;8.68;77.93;100299.50;4902016;29;45246;-91
2022/12/20 03:18:34;;;;;;;;;7.00;5.25;;;;;9.36;78.14;100398.50;4902310;29;47192;-91
2022/12/20 03:21:00;;;;;;;;;7.25;5.50;;;;;10.38;77.94;100591.19;4900171;29;45254;-93
2022/12/20 03:23:27;;;;;;;;;4.00;4.00;;;;;8.46;77.95;100271.78;4891146;29;45314;-92
2022/12/20 03:25:54;;;;;;;;;6.75;6.00;;;;;9.40;78.12;100425.72;4917615;28;45171;-91
2022/12/20 03:28:19;;;;;;;;;5.25;5.25;;;;;9.38;78.35;100423.13;4963909;28;47321;-92
2022/12/20 03:30:45;;;;;;;;;6.00;4.25;;;;;9.59;78.07;100474.59;4963452;28;45386;-92
2022/12/20 03:33:11;;;;;;;;;4.00;4.00;;;;;9.95;78.15;100529.44;4964597;28;45457;-91
2022/12/20 03:35:36;;;;;;;;;8.25;5.00;;;;;8.95;78.14;100347.38;4967154;28;45671;-91
2022/12/20 03:38:02;;;;;;;;;5.75;5.75;;;;;9.46;77.64;100446.72;4968838;28;46534;-91
2022/12/20 03:40:27;;;;;;;;;5.75;5.75;;;;;9.37;77.63;100426.63;4971136;28;45366;-90
2022/12/20 03:42:53;;;;;;;;;7.50;5.75;;;;;9.15;78.03;100390.97;4974181;28;45424;-92
2022/12/20 03:45:19;;;;;;;;;6.25;6.25;;;;;8.94;77.59;100358.78;4977405;28;44924;-92
2022/12/20 03:47:44;;;;;;;;;4.75;4.75;;;;;10.26;78.44;100592.25;4958475;28;46961;-91
2022/12/20 03:50:10;;;;;;;;;5.50;5.50;;;;;9.42;78.22;100445.03;4959354;28;44706;-90
2022/12/20 03:52:38;;;;;;;;;5.00;5.00;;;;;9.64;77.98;100474.56;4952322;28;45341;-91
2022/12/20 03:55:04;;;;;;;;;4.00;4.00;;;;;9.21;77.77;100414.59;4959197;28;45232;-91
2022/12/20 03:57:30;;;;;;;;;4.00;4.00;;;;;9.93;78.11;100533.88;4960377;28;47400;-91
2022/12/20 03:59:55;;;;;;;;;7.00;6.00;;;;;9.27;77.84;100409.22;4955295;28;45298;-91
2022/12/20 04:02:21;;;;;;;;;5.75;4.25;;;;;9.49;77.84;100461.59;4956900;28;45430;-90
2022/12/20 04:04:47;;;;;;;;;5.00;5.00;;;;;10.21;77.92;100576.47;4960326;28;44955;-90
2022/12/20 04:07:13;;;;;;;;;3.25;3.25;;;;;8.80;77.52;100342.34;4960803;28;46209;-91
2022/12/20 04:09:38;;;;;;;;;5.00;4.00;;;;;10.16;77.82;100564.25;4963253;28;45105;-91
2022/12/20 04:12:04;;;;;;;;;7.00;3.25;;;;;10.19;77.78;100574.75;4947585;28;45311;-91
2022/12/20 04:14:30;;;;;;;;;3.00;3.00;;;;;9.60;78.19;100459.66;4960270;28;45542;-91
2022/12/20 04:16:56;;;;;;;;;4.00;3.25;;;;;9.88;78.06;100514.59;4959446;28;46733;-91
2022/12/20 04:19:21;;;;;;;;;5.75;4.00;;;;;9.59;77.37;100452.63;4932720;28;46116;-91
2022/12/20 04:21:47;;;;;;;;;7.75;4.75;;;;;8.55;77.75;100282.16;4948626;28;45244;-90
2022/12/20 04:24:13;;;;;;;;;3.75;3.75;;;;;10.18;77.82;100550.13;4949307;28;45192;-91
2022/12/20 04:26:40;;;;;;;;;6.50;5.00;;;;;9.64;77.44;100436.72;4935554;28;48437;-91
2022/12/20 04:29:06;;;;;;;;;4.00;4.00;;;;;9.11;77.54;100348.00;4951409;28;45255;-91
2022/12/20 04:31:32;;;;;;;;;6.00;6.00;;;;;9.80;77.88;100466.34;4950637;28;45380;-91
2022/12/20 04:33:57;;;;;;;;;4.00;4.00;;;;;8.77;77.94;100297.59;4950470;28;45343;-90
2022/12/20 04:36:23;;;;;;;;;3.75;2.75;;;;;9.82;77.34;100462.78;4954413;28;47033;-91
2022/12/20 04:38:50;;;;;;;;;5.50;4.50;;;;;8.75;77.72;100278.31;4935401;28;45294;-91
2022/12/20 04:41:21;;;;;;;;;4.25;4.25;;;;;9.17;77.21;100352.25;4953546;28;45295;-91
2022/12/20 04:43:57;;;;;;;;;4.50;4.50;;;;;9.54;77.46;100404.38;4951222;28;45303;-91
2022/12/20 04:46:24;;;;;;;;;4.50;4.50;;;;;9.19;77.31;100355.75;4929675;28;47198;-91
2022/12/20 04:48:51;;;;;;;;;6.00;5.00;;;;;9.24;77.59;100367.09;4924798;28;45248;-92
2022/12/20 04:51:20;;;;;;;;;7.00;5.75;;;;;9.90;77.29;100462.63;4931743;28;45248;-92
2022/12/20 04:53:48;;;;;;;;;8.00;8.00;;;;;9.54;77.12;100397.31;4936410;28;44919;-91
2022/12/20 04:56:27;;;;;;;;;7.00;7.00;;;;;10.19;77.53;100500.81;4944022;28;47774;-91
2022/12/20 04:58:55;;;;;;;;;7.50;7.00;;;;;9.32;77.51;100359.94;4939504;28;45362;-92
2022/12/20 05:01:21;;;;;;;;;8.50;7.25;;;;;8.97;77.11;100298.09;4932388;28;45382;-92
2022/12/20 05:03:48;;;;;;;;;10.50;9.25;;;;;10.35;77.52;100526.06;4935012;28;44887;-92
2022/12/20 05:06:14;;;;;;;;;13.50;10.25;;;;;10.01;77.17;100481.78;4920206;28;48346;-91
2022/12/20 05:08:40;;;;;;;;;6.25;5.75;;;;;9.03;77.13;100311.22;4934954;28;45239;-91
2022/12/20 05:11:07;;;;;;;;;8.00;8.00;;;;;9.09;77.55;100298.81;4933809;28;45248;-91
2022/12/20 05:13:33;;;;;;;;;7.50;6.50;;;;;8.99;77.20;100272.63;4927413;28;45199;-91
2022/12/20 05:15:59;;;;;;;;;9.50;8.25;;;;;10.11;77.18;100454.31;4932613;28;46593;-91
2022/12/20 05:18:27;;;;;;;;;5.25;5.25;;;;;8.67;76.73;100188.84;4927426;28;45370;-91
2022/12/20 05:26:32;;;;;;;;;5.25;4.50;;;;;9.98;76.47;100394.72;4951849;28;45003;-92
2022/12/20 05:28:57;;;;;;;;;4.00;2.00;;;;;9.84;76.50;100362.44;4933138;28;45404;-92
2022/12/20 05:31:23;;;;;;;;;5.25;4.25;;;;;9.95;76.69;100394.78;4915991;28;44782;-94
2022/12/20 05:33:48;;;;;;;;;5.50;5.50;;;;;9.20;76.69;100249.34;4932288;28;44889;-91
2022/12/20 05:36:14;;;;;;;;;6.75;5.00;;;;;9.25;76.93;100276.53;4932640;28;46779;-92
2022/12/20 05:38:40;;;;;;;;;4.25;3.25;;;;;10.58;77.21;100524.72;4923358;28;45378;-90
2022/12/20 05:41:06;;;;;;;;;5.00;5.00;;;;;10.58;77.37;100499.19;4955857;28;45285;-91
2022/12/20 05:43:31;;;;;;;;;3.00;3.00;;;;;8.96;76.76;100225.22;4931276;28;45261;-91
2022/12/20 05:45:57;;;;;;;;;4.00;4.00;;;;;9.24;76.87;100280.06;4951340;28;47259;-91
2022/12/20 05:48:22;;;;;;;;;5.00;5.00;;;;;9.83;76.71;100358.06;4952658;28;46113;-91
2022/12/20 05:50:49;;;;;;;;;2.25;2.00;;;;;10.64;77.73;100492.88;4953357;28;45257;-92
2022/12/20 05:53:16;;;;;;;;;2.75;2.75;;;;;9.66;77.50;100324.09;4914707;28;45338;-92
2022/12/20 05:55:48;;;;;;;;;3.50;3.00;;;;;8.99;76.99;100217.25;4943596;28;46859;-93
2022/12/20 05:58:14;;;;;;;;;2.25;2.25;;;;;9.41;76.71;100291.16;4946346;28;45228;-93
2022/12/20 06:00:41;;;;;;;;;3.00;3.00;;;;;9.54;77.00;100322.56;4948747;28;45343;-93
2022/12/20 06:03:08;;;;;;;;;3.50;3.50;;;;;9.33;77.41;100264.06;4947465;28;45302;-92
2022/12/20 06:05:38;;;;;;;;;2.00;2.00;;;;;9.07;76.72;100206.56;4959530;28;47257;-92
2022/12/20 06:08:06;;;;;;;;;3.25;3.25;;;;;9.11;76.69;100207.34;4956966;28;45104;-94
2022/12/20 06:10:36;;;;;;;;;2.00;2.00;;;;;9.11;76.95;100233.72;4955096;28;45292;-92
2022/12/20 06:13:02;;;;;;;;;4.00;2.00;;;;;10.11;76.95;100404.13;4955475;28;45260;-93
2022/12/20 06:15:29;;;;;;;;;4.00;4.00;;;;;9.78;76.84;100327.34;4961771;28;47629;-93
2022/12/20 06:17:54;;;;;;;;;3.25;3.00;;;;;9.20;76.22;100241.44;4952049;28;45342;-90
2022/12/20 06:20:20;;;;;;;;;2.00;2.00;;;;;10.81;76.92;100506.59;4946118;28;45343;-92
2022/12/20 06:22:45;;;;;;;;;4.50;2.50;;;;;10.06;76.60;100371.66;4947537;28;45324;-89
2022/12/20 06:25:19;;;;;;;;;3.50;3.50;;;;;10.28;76.54;100421.41;5407407;22;46371;-89
2022/12/20 06:27:44;;;;;;;;;2.75;2.75;;;;;10.48;76.79;100444.78;4981092;28;45485;-89
2022/12/20 06:30:13;;;;;;;;;3.00;2.00;;;;;10.48;76.74;100429.78;5004525;28;45314;-93
2022/12/20 06:32:41;;;;;;;;;3.00;2.50;;;;;10.89;76.39;100490.56;5006009;28;45650;-91
2022/12/20 06:35:08;;;;;;;;;3.00;3.00;;;;;10.90;76.37;100510.81;5008691;28;48139;-91
2022/12/20 06:37:35;;;;;;;;;2.25;2.25;;;;;9.65;76.53;100290.69;5014919;28;44587;-91
2022/12/20 06:40:01;;;;;;;;;3.00;3.00;;;;;10.54;76.87;100442.00;5007831;28;45233;-93
2022/12/20 06:42:26;;;;;;;;;2.00;2.00;;;;;9.14;76.85;100195.00;5155108;22;46004;-92
2022/12/20 06:44:52;;;;;;;;;5.00;3.50;;;;;10.04;76.46;100352.34;5013883;28;46924;-92
2022/12/20 06:47:17;;;;;;;;;3.00;3.00;;;;;10.26;76.17;100375.63;5008865;28;45291;-93
2022/12/20 06:49:43;;;;;;;;;4.00;2.25;;;;;9.26;76.31;100201.75;5008680;28;45276;-92
2022/12/20 06:52:09;;;;;;;;;4.75;3.75;;;;;9.55;76.74;100255.69;5008851;28;45226;-93
2022/12/20 06:54:35;;;;;;;;;3.00;3.00;;;;;10.19;76.88;100364.34;4992087;28;47300;-93
2022/12/20 06:57:05;;;;;;;;;1.25;1.25;;;;;9.99;76.91;100324.28;5000152;28;44620;-92
2022/12/20 06:59:34;;;;;;;;;2.25;2.25;;;;;9.43;76.39;100209.34;5008555;28;44699;-91
2022/12/20 07:01:59;;;;;;;;;2.50;2.25;;;;;9.69;76.73;100255.44;4983622;28;45184;-92
2022/12/20 07:04:26;;;;;;;;;1.00;1.00;;;;;11.04;77.08;100492.00;5019136;28;45371;-92
2022/12/20 07:06:51;;;;;;;;;3.00;2.00;;;;;9.38;76.94;100214.72;5006687;28;45506;-92
2022/12/20 07:09:18;;;;;;;;;2.00;2.00;;;;;9.56;76.80;100231.06;5018186;28;44750;-93
2022/12/20 07:11:45;;;;;;;;;1.25;1.25;;;;;9.43;76.25;100222.53;5006129;28;45412;-93
2022/12/20 07:24:26;;;;;;;;;3.00;3.00;;;;;10.77;76.77;100446.75;4905430;29;45319;-91
2022/12/20 07:30:20;;;;;;;;;3.00;3.00;;;;;11.15;76.99;100481.16;4916188;29;45463;-92
2022/12/20 07:32:48;;;;;;;;;2.00;2.00;;;;;11.13;76.75;100496.19;4904164;29;44857;-91
2022/12/20 07:35:17;;;;;;;;;3.25;3.25;;;;;11.14;77.00;100476.75;4919417;28;44889;-91
2022/12/20 07:37:43;;;;;;;;;2.50;2.50;;;;;11.17;76.15;100488.16;4910738;29;46462;-93
2022/12/20 07:40:13;;;;;;;;;3.00;3.00;;;;;9.89;76.20;100270.81;4908923;29;45454;-93
2022/12/20 07:42:39;;;;;;;;;2.75;2.75;;;;;11.20;76.52;100492.50;4892103;29;45393;-93
2022/12/20 07:45:05;;;;;;;;;3.00;3.00;;;;;10.76;76.33;100431.78;4895941;29;45467;-93
2022/12/20 07:47:34;;;;;;;;;4.25;3.00;;;;;9.73;76.44;100250.03;4882512;29;47490;-93
2022/12/20 07:50:04;;;;;;;;;3.00;3.00;;;;;10.62;76.35;100396.91;4898596;29;45175;-95
2022/12/20 07:52:34;;;;;;;;;3.00;3.00;;;;;10.58;76.75;100392.56;4868628;28;45422;-94
2022/12/20 07:55:01;;;;;;;;;4.50;2.75;;;;;9.60;76.38;100222.19;4950030;28;45228;-94
2022/12/20 07:57:37;;;;;;;;;3.00;3.00;;;;;9.90;76.28;100270.78;4949464;28;46106;-92
2022/12/20 08:00:06;;;;;;;;;4.00;2.00;;;;;11.25;76.59;100500.31;4929902;28;45373;-91
2022/12/20 08:03:00;;;;;;;;;3.50;2.00;;;;;10.27;76.28;100335.13;4956654;28;45213;-91
2022/12/20 08:05:29;;;;;;;;;2.00;2.00;;;;;10.54;76.19;100369.78;4949125;28;45350;-92
2022/12/20 08:07:58;;;;;;;;;4.25;4.25;;;;;10.59;75.78;100394.31;4930217;28;47884;-92
2022/12/20 08:10:24;;;;;;;;;3.00;3.00;;;;;10.61;76.02;100393.41;4947972;28;45378;-91
2022/12/20 08:12:50;;;;;;;;;2.00;2.00;;;;;10.30;75.99;100345.63;4929749;28;45337;-91
2022/12/20 08:15:27;;;;;;;;;3.75;3.50;;;;;11.28;75.75;100502.88;4957463;28;45010;-93
2022/12/20 08:17:52;;;;;;;;;3.25;3.25;;;;;10.29;75.59;100333.31;4942152;28;47292;-93
2022/12/20 08:20:18;;;;;;;;;5.00;3.50;;;;;10.97;76.12;100450.72;4934179;28;45224;-93
2022/12/20 08:22:44;;;;;;;;;4.00;2.25;;;;;10.93;75.52;100431.44;4930953;28;45269;-93
2022/12/20 08:25:10;;;;;;;;;2.00;2.00;;;;;10.41;75.25;100354.19;4950916;28;45225;-92
2022/12/20 08:27:37;;;;;;;;;3.00;2.00;;;;;10.31;75.80;100331.53;4954059;28;47096;-91
2022/12/20 08:30:03;;;;;;;;;5.00;4.00;;;;;11.30;76.11;100498.44;4930012;28;45433;-91
2022/12/20 08:32:29;;;;;;;;;5.25;3.25;;;;;10.64;75.67;100405.66;4977675;28;45267;-93
2022/12/20 08:34:58;;;;;;;;;6.75;3.75;;;;;10.74;75.32;100396.59;4976332;28;44828;-93
2022/12/20 08:37:25;;;;;;;;;5.25;4.00;;;;;10.19;75.79;100308.00;4989661;28;47161;-92
2022/12/20 08:39:51;;;;;;;;;4.00;4.00;;;;;10.37;75.67;100341.97;4983506;28;45503;-91
2022/12/20 08:42:16;;;;;;;;;5.00;3.00;;;;;10.87;75.03;100404.25;4986841;28;45528;-90
2022/12/20 08:44:42;;;;;;;;;5.00;2.75;;;;;11.00;75.56;100440.06;4991400;28;45581;-90
2022/12/20 08:47:11;;;;;;;;;5.00;3.00;;;;;10.97;75.39;100440.16;4982354;28;46933;-91
2022/12/20 08:49:36;;;;;;;;;5.00;3.00;;;;;10.99;76.01;100444.50;4973396;28;45180;-91
2022/12/20 08:52:02;;;;;;;;;4.50;3.00;;;;;11.27;75.74;100486.16;4969138;28;45615;-91
2022/12/20 08:54:28;;;;;;;;;5.00;3.50;;;;;10.98;76.01;100431.31;4951799;28;45308;-92
2022/12/20 08:56:53;;;;;;;;;4.50;4.50;;;;;10.45;75.16;100337.38;4967193;28;46839;-95
2022/12/20 08:59:19;;;;;;;;;3.75;3.75;;;;;9.77;75.41;100214.75;4966382;28;45209;-95
2022/12/20 09:05:07;;;;;;;;;4.00;4.00;;;;;11.18;74.95;100439.63;4981280;28;45227;-93
2022/12/20 09:07:33;;;;;;;;;3.00;3.00;;;;;11.49;76.25;100515.63;4956639;28;47245;-94
2022/12/20 09:09:58;;;;;;;;;4.50;3.75;;;;;11.42;75.77;100476.97;4984003;28;45495;-93
2022/12/20 09:12:24;;;;;;;;;3.50;3.50;;;;;10.29;74.95;100296.31;4982426;28;44870;-93
2022/12/20 09:14:49;;;;;;;;;2.25;2.25;;;;;11.53;75.00;100501.38;4987436;28;45248;-93
2022/12/20 09:17:17;;;;;;;;;2.75;1.75;;;;;10.37;75.59;100328.75;4984975;28;48272;-94
2022/12/20 09:19:44;;;;;;;;;3.50;1.75;;;;;9.72;76.06;100214.00;4973839;28;45418;-93
2022/12/20 09:22:11;;;;;;;;;2.75;2.00;;;;;10.99;76.36;100433.03;4971956;28;44778;-93
2022/12/20 09:24:37;;;;;;;;;3.50;3.50;;;;;11.48;76.83;100511.22;4970893;28;45278;-92
2022/12/20 09:27:03;;;;;;;;;3.00;2.75;;;;;11.46;76.59;100507.72;4956187;28;48170;-92
2022/12/20 09:30:21;;;;;;;;;;;;;;;;;;;;;
2022/12/20 09:36:13;;;;;;;;;3.00;3.00;;;;;11.22;77.93;100496.00;4919705;28;45550;-92
2022/12/20 09:38:39;;;;;;;;;4.00;4.00;;;;;9.89;78.10;100295.44;4888640;28;45392;-88
2022/12/20 09:48:18;;;;;;;;;3.00;3.00;;;;;10.91;78.83;100478.16;4928598;28;45546;-92
2022/12/20 09:51:17;;;;;;;;;3.00;2.00;;;;;9.54;78.72;100253.97;4893483;29;46386;-94
2022/12/20 09:54:25;;;;;;;;;3.75;2.00;;;;;10.46;79.11;100423.69;4870916;29;44876;-93
2022/12/20 09:57:27;;;;;;;;;3.00;3.00;;;;;10.25;79.73;100397.69;4881416;29;45381;-92
2022/12/20 09:59:56;;;;;;;;;3.00;3.00;;;;;9.85;79.66;100314.03;4860451;29;45043;-93
2022/12/20 10:02:24;;;;;;;;;4.50;3.75;;;;;9.92;80.03;100334.13;4876088;29;47148;-91
2022/12/20 10:04:52;;;;;;;;;3.25;3.25;;;;;10.91;80.02;100507.25;4873083;29;45226;-92
2022/12/20 10:07:32;;;;;;;;;3.50;3.00;;;;;10.91;80.11;100490.53;4848024;29;45479;-93
2022/12/20 10:10:20;;;;;;;;;4.75;4.75;;;;;10.90;80.41;100492.31;4865417;29;45422;-94
2022/12/20 10:13:12;;;;;;;;;4.50;2.50;;;;;10.90;81.12;100486.13;4871972;29;47100;-94
2022/12/20 10:15:49;;;;;;;;;3.50;3.00;;;;;10.19;80.67;100376.66;4871024;28;45210;-92
2022/12/20 10:18:40;;;;;;;;;3.75;3.75;;;;;9.90;80.64;100336.78;4930813;28;45307;-92
2022/12/20 10:21:33;;;;;;;;;3.00;3.00;;;;;10.14;80.93;100361.81;4922411;28;44868;-94
2022/12/20 10:24:10;;;;;;;;;4.75;4.75;;;;;9.62;81.43;100288.97;4937305;28;47387;-93
2022/12/20 10:26:38;;;;;;;;;3.50;3.25;;;;;10.16;80.81;100374.09;4939280;28;45438;-91
2022/12/20 10:29:05;;;;;;;;;4.25;2.75;;;;;10.52;81.05;100424.44;4933547;28;45285;-93
2022/12/20 10:31:31;;;;;;;;;7.00;4.75;;;;;9.29;81.10;100216.66;4963320;28;45157;-93
2022/12/20 10:33:56;;;;;;;;;4.25;4.25;;;;;9.91;81.11;100325.31;4992014;28;45615;-92
2022/12/20 10:36:31;;;;;;;;;3.50;3.00;;;;;9.53;81.00;100254.88;4978742;28;44748;-94
2022/12/20 10:39:03;;;;;;;;;6.00;2.00;;;;;10.17;80.99;100337.09;4976058;28;45439;-93
2022/12/20 10:41:47;;;;;;;;;4.75;4.00;;;;;9.39;81.16;100202.41;4991039;28;44815;-94
2022/12/20 10:44:29;;;;;;;;;2.75;2.75;;;;;10.08;81.57;100313.50;4982154;28;45555;-92
2022/12/20 10:46:57;;;;;;;;;5.00;5.00;;;;;10.31;81.22;100353.50;4973849;28;45932;-93
2022/12/20 10:49:36;;;;;;;;;4.75;3.00;;;;;10.53;81.61;100410.31;4996534;28;45245;-93
2022/12/20 10:52:07;;;;;;;;;3.00;3.00;;;;;10.62;81.82;100415.41;4987484;28;45323;-93
2022/12/20 10:54:38;;;;;;;;;2.00;2.00;;;;;10.42;81.71;100390.28;5003552;28;47607;-93
2022/12/20 10:57:25;;;;;;;;;5.25;5.25;;;;;9.23;81.47;100180.72;4980468;28;45528;-92
2022/12/20 10:59:52;;;;;;;;;8.50;6.25;;;;;10.63;81.66;100419.78;4979114;28;45436;-91
2022/12/20 11:03:14;;;;;;;;;4.50;3.50;;;;;10.92;81.87;100476.41;4965460;28;45255;-90
2022/12/20 11:05:51;;;;;;;;;5.50;4.25;;;;;10.38;82.26;100390.38;4970018;28;46134;-90
2022/12/20 11:08:17;;;;;;;;;5.75;5.25;;;;;9.88;82.30;100298.97;4988969;28;45601;-90
2022/12/20 11:10:43;;;;;;;;;4.00;4.00;;;;;10.23;81.46;100360.75;4969311;28;45484;-91
2022/12/20 11:13:25;;;;;;;;;3.75;3.75;;;;;10.80;82.54;100465.19;4985959;28;45381;-90
2022/12/20 11:15:55;;;;;;;;;5.75;5.00;;;;;10.41;82.29;100400.88;4977991;28;46178;-91
2022/12/20 11:18:49;;;;;;;;;6.75;6.75;;;;;10.74;82.81;100446.84;4999579;28;45365;-90
2022/12/20 11:21:45;;;;;;;;;9.25;9.25;;;;;10.73;83.05;100460.94;4967744;28;45375;-90
2022/12/20 11:24:22;;;;;;;;;6.00;6.00;;;;;9.99;83.15;100334.84;4908245;28;45531;-88
2022/12/20 11:27:20;;;;;;;;;10.00;7.00;;;;;10.36;82.86;100408.06;4891008;29;46453;-89
2022/12/20 11:30:02;;;;;;;;;5.25;5.25;;;;;9.80;82.97;100321.19;4901959;29;45878;-89
2022/12/20 11:33:01;;;;;;;;;2.50;1.25;;;;;10.62;83.02;100453.25;4893199;29;45361;-91
2022/12/20 11:35:46;;;;;;;;;8.00;6.75;;;;;10.61;83.35;100466.50;4900995;29;44774;-92
2022/12/20 11:38:37;;;;;;;;;7.00;7.00;;;;;10.26;83.02;100400.31;4890898;29;46751;-92
2022/12/20 11:41:41;;;;;;;;;8.50;7.75;;;;;10.57;82.84;100446.34;4852305;29;45429;-91
2022/12/20 11:44:12;;;;;;;;;6.50;5.50;;;;;10.59;83.18;100434.81;4811239;29;45404;-90
2022/12/20 11:47:22;;;;;;;;;4.50;4.50;;;;;9.76;82.88;100305.41;4833432;29;45386;-93
2022/12/20 11:50:18;;;;;;;;;7.00;6.00;;;;;8.76;82.50;100122.81;4839425;29;45686;-92
2022/12/20 11:53:00;;;;;;;;;7.50;7.00;;;;;9.20;83.26;100181.69;4822388;29;45393;-93
2022/12/20 11:55:36;;;;;;;;;8.75;7.50;;;;;9.91;83.06;100293.63;4842353;29;44633;-93
2022/12/20 11:58:14;;;;;;;;;7.25;7.25;;;;;10.59;83.03;100400.47;4836017;29;45428;-93
2022/12/20 12:00:47;;;;;;;;;9.25;6.00;;;;;9.58;82.62;100239.78;4810088;29;46353;-93
2022/12/20 12:03:41;;;;;;;;;5.00;5.00;;;;;10.59;83.08;100404.91;4840035;29;45275;-93
2022/12/20 12:06:52;;;;;;;;;6.00;6.00;;;;;10.57;83.18;100399.66;4837767;29;45366;-92
2022/12/20 12:09:47;;;;;;;;;6.00;6.00;;;;;8.83;82.84;100118.28;4833332;29;45683;-96
2022/12/20 12:16:22;;;;;;;;;7.00;7.00;;;;;9.76;83.20;100249.97;4810150;29;45300;-94
2022/12/20 12:46:13;;;;;;;;;7.75;5.75;;;;;10.82;82.95;100338.25;4777605;29;45518;-90
2022/12/20 12:48:44;;;;;;;;;6.75;6.50;;;;;10.68;83.13;100320.09;4775956;29;45324;-93
2022/12/20 12:51:40;;;;;;;;;5.75;5.75;;;;;10.54;83.23;100283.44;4741458;30;47237;-91